sensor_id;sensor_type;location;lat;lon;timestamp;P1;durP1;ratioP1;P2;durP2;ratioP2
21418;SDS011;10870;51.384;10.316;2023-03-13T00:00:59;33.80;;;6.10;;
21418;SDS011;10870;51.384;10.316;2023-03-13T00:03:01;22.15;;;6.18;;
21418;SDS011;10870;51.384;10.316;2023-03-13T00:05:02;26.52;;;6.68;;
21418;SDS011;10870;51.384;10.316;2023-03-13T00:07:06;23.15;;;6.43;;
21418;SDS011;10870;51.384;10.316;2023-03-13T00:09:12;27.23;;;7.00;;
21418;SDS011;10870;51.384;10.316;2023-03-13T00:11:16;24.75;;;5.55;;
21418;SDS011;10870;51.384;10.316;2023-03-13T00:13:17;24.25;;;5.70;;
21418;SDS011;10870;51.384;10.316;2023-03-13T00:15:22;22.67;;;5.68;;
21418;SDS011;10870;51.384;10.316;2023-03-13T00:17:23;20.90;;;5.18;;
21418;SDS011;10870;51.384;10.316;2023-03-13T00:19:24;23.77;;;5.75;;
21418;SDS011;10870;51.384;10.316;2023-03-13T00:21:27;29.90;;;5.88;;
21418;SDS011;10870;51.384;10.316;2023-03-13T00:23:28;28.73;;;5.82;;
21418;SDS011;10870;51.384;10.316;2023-03-13T00:25:30;15.98;;;5.20;;
21418;SDS011;10870;51.384;10.316;2023-03-13T00:27:32;30.23;;;6.97;;
21418;SDS011;10870;51.384;10.316;2023-03-13T00:29:35;17.15;;;5.47;;
21418;SDS011;10870;51.384;10.316;2023-03-13T00:31:42;21.02;;;6.78;;
21418;SDS011;10870;51.384;10.316;2023-03-13T00:33:47;27.88;;;5.57;;
21418;SDS011;10870;51.384;10.316;2023-03-13T00:35:50;36.17;;;6.90;;
21418;SDS011;10870;51.384;10.316;2023-03-13T00:37:54;21.08;;;6.57;;
21418;SDS011;10870;51.384;10.316;2023-03-13T00:39:55;20.85;;;6.32;;
21418;SDS011;10870;51.384;10.316;2023-03-13T00:41:57;23.80;;;5.85;;
21418;SDS011;10870;51.384;10.316;2023-03-13T00:43:59;22.98;;;5.30;;
21418;SDS011;10870;51.384;10.316;2023-03-13T00:46:00;25.85;;;6.15;;
21418;SDS011;10870;51.384;10.316;2023-03-13T00:48:02;24.25;;;6.28;;
21418;SDS011;10870;51.384;10.316;2023-03-13T00:50:06;26.75;;;6.63;;
21418;SDS011;10870;51.384;10.316;2023-03-13T00:52:07;25.38;;;5.55;;
21418;SDS011;10870;51.384;10.316;2023-03-13T00:54:11;30.40;;;6.18;;
21418;SDS011;10870;51.384;10.316;2023-03-13T00:56:13;31.65;;;6.55;;
21418;SDS011;10870;51.384;10.316;2023-03-13T00:58:14;26.40;;;5.55;;
21418;SDS011;10870;51.384;10.316;2023-03-13T01:00:16;26.23;;;5.22;;
21418;SDS011;10870;51.384;10.316;2023-03-13T01:02:20;28.10;;;5.68;;
21418;SDS011;10870;51.384;10.316;2023-03-13T01:04:21;25.02;;;5.40;;
21418;SDS011;10870;51.384;10.316;2023-03-13T01:06:24;26.52;;;5.43;;
21418;SDS011;10870;51.384;10.316;2023-03-13T01:08:27;24.95;;;5.85;;
21418;SDS011;10870;51.384;10.316;2023-03-13T01:10:29;23.17;;;5.10;;
21418;SDS011;10870;51.384;10.316;2023-03-13T01:12:30;19.17;;;5.45;;
21418;SDS011;10870;51.384;10.316;2023-03-13T01:14:34;22.15;;;5.18;;
21418;SDS011;10870;51.384;10.316;2023-03-13T01:16:37;24.52;;;5.07;;
21418;SDS011;10870;51.384;10.316;2023-03-13T01:18:39;25.33;;;6.00;;
21418;SDS011;10870;51.384;10.316;2023-03-13T01:20:41;16.55;;;5.07;;
21418;SDS011;10870;51.384;10.316;2023-03-13T01:22:42;23.65;;;5.18;;
21418;SDS011;10870;51.384;10.316;2023-03-13T01:24:46;23.05;;;6.10;;
21418;SDS011;10870;51.384;10.316;2023-03-13T01:26:51;28.92;;;5.60;;
21418;SDS011;10870;51.384;10.316;2023-03-13T01:28:55;21.17;;;5.60;;
21418;SDS011;10870;51.384;10.316;2023-03-13T01:30:56;26.15;;;4.78;;
21418;SDS011;10870;51.384;10.316;2023-03-13T01:33:00;26.67;;;6.03;;
21418;SDS011;10870;51.384;10.316;2023-03-13T01:35:04;24.92;;;6.13;;
21418;SDS011;10870;51.384;10.316;2023-03-13T01:37:08;19.63;;;6.18;;
21418;SDS011;10870;51.384;10.316;2023-03-13T01:39:12;29.63;;;5.30;;
21418;SDS011;10870;51.384;10.316;2023-03-13T01:41:13;24.40;;;5.65;;
21418;SDS011;10870;51.384;10.316;2023-03-13T01:43:22;26.27;;;5.60;;
21418;SDS011;10870;51.384;10.316;2023-03-13T01:47:46;29.20;;;6.75;;
21418;SDS011;10870;51.384;10.316;2023-03-13T01:49:48;23.02;;;6.43;;
21418;SDS011;10870;51.384;10.316;2023-03-13T01:52:03;28.13;;;6.53;;
21418;SDS011;10870;51.384;10.316;2023-03-13T01:56:13;18.58;;;4.88;;
21418;SDS011;10870;51.384;10.316;2023-03-13T01:58:17;21.48;;;6.13;;
21418;SDS011;10870;51.384;10.316;2023-03-13T02:00:19;30.65;;;5.55;;
21418;SDS011;10870;51.384;10.316;2023-03-13T02:02:21;27.55;;;6.00;;
21418;SDS011;10870;51.384;10.316;2023-03-13T02:04:23;24.85;;;4.65;;
21418;SDS011;10870;51.384;10.316;2023-03-13T02:06:28;31.48;;;6.10;;
21418;SDS011;10870;51.384;10.316;2023-03-13T02:08:33;30.80;;;5.47;;
21418;SDS011;10870;51.384;10.316;2023-03-13T02:10:49;24.40;;;6.07;;
21418;SDS011;10870;51.384;10.316;2023-03-13T02:12:51;23.63;;;5.03;;
21418;SDS011;10870;51.384;10.316;2023-03-13T02:14:56;18.17;;;5.03;;
21418;SDS011;10870;51.384;10.316;2023-03-13T02:16:59;21.42;;;5.07;;
21418;SDS011;10870;51.384;10.316;2023-03-13T02:19:05;20.30;;;4.82;;
21418;SDS011;10870;51.384;10.316;2023-03-13T02:21:13;23.02;;;5.55;;
21418;SDS011;10870;51.384;10.316;2023-03-13T02:23:33;21.27;;;5.82;;
21418;SDS011;10870;51.384;10.316;2023-03-13T02:25:48;27.20;;;4.95;;
21418;SDS011;10870;51.384;10.316;2023-03-13T02:27:51;27.60;;;6.00;;
21418;SDS011;10870;51.384;10.316;2023-03-13T02:29:55;21.45;;;5.40;;
21418;SDS011;10870;51.384;10.316;2023-03-13T02:31:57;25.55;;;5.25;;
21418;SDS011;10870;51.384;10.316;2023-03-13T02:34:01;17.50;;;4.90;;
21418;SDS011;10870;51.384;10.316;2023-03-13T02:36:03;23.85;;;6.18;;
21418;SDS011;10870;51.384;10.316;2023-03-13T02:38:06;23.70;;;4.75;;
21418;SDS011;10870;51.384;10.316;2023-03-13T02:40:11;18.73;;;5.28;;
21418;SDS011;10870;51.384;10.316;2023-03-13T02:42:18;21.83;;;5.15;;
21418;SDS011;10870;51.384;10.316;2023-03-13T02:44:21;24.83;;;4.90;;
21418;SDS011;10870;51.384;10.316;2023-03-13T02:46:25;21.05;;;5.10;;
21418;SDS011;10870;51.384;10.316;2023-03-13T02:48:34;26.02;;;5.70;;
21418;SDS011;10870;51.384;10.316;2023-03-13T02:50:36;21.30;;;4.88;;
21418;SDS011;10870;51.384;10.316;2023-03-13T02:52:44;25.45;;;5.63;;
21418;SDS011;10870;51.384;10.316;2023-03-13T02:54:51;22.52;;;6.38;;
21418;SDS011;10870;51.384;10.316;2023-03-13T02:56:54;28.23;;;5.28;;
21418;SDS011;10870;51.384;10.316;2023-03-13T02:58:59;19.27;;;5.60;;
21418;SDS011;10870;51.384;10.316;2023-03-13T03:01:02;25.45;;;5.95;;
21418;SDS011;10870;51.384;10.316;2023-03-13T03:03:07;25.88;;;5.68;;
21418;SDS011;10870;51.384;10.316;2023-03-13T03:05:08;27.20;;;6.90;;
21418;SDS011;10870;51.384;10.316;2023-03-13T03:07:12;23.65;;;5.07;;
21418;SDS011;10870;51.384;10.316;2023-03-13T03:09:14;27.23;;;5.30;;
21418;SDS011;10870;51.384;10.316;2023-03-13T03:11:17;29.30;;;6.78;;
21418;SDS011;10870;51.384;10.316;2023-03-13T03:13:18;20.50;;;5.93;;
21418;SDS011;10870;51.384;10.316;2023-03-13T03:15:22;27.27;;;5.95;;
21418;SDS011;10870;51.384;10.316;2023-03-13T03:17:26;26.95;;;6.53;;
21418;SDS011;10870;51.384;10.316;2023-03-13T03:19:27;24.80;;;5.70;;
21418;SDS011;10870;51.384;10.316;2023-03-13T03:21:29;19.23;;;5.88;;
21418;SDS011;10870;51.384;10.316;2023-03-13T03:23:32;26.75;;;5.28;;
21418;SDS011;10870;51.384;10.316;2023-03-13T03:25:39;28.13;;;5.80;;
21418;SDS011;10870;51.384;10.316;2023-03-13T03:27:43;27.35;;;5.78;;
21418;SDS011;10870;51.384;10.316;2023-03-13T03:29:46;23.92;;;5.45;;
21418;SDS011;10870;51.384;10.316;2023-03-13T03:31:50;19.02;;;5.82;;
21418;SDS011;10870;51.384;10.316;2023-03-13T03:33:55;25.48;;;5.97;;
21418;SDS011;10870;51.384;10.316;2023-03-13T03:36:00;18.05;;;5.47;;
21418;SDS011;10870;51.384;10.316;2023-03-13T03:38:01;21.35;;;5.18;;
21418;SDS011;10870;51.384;10.316;2023-03-13T03:40:03;20.98;;;4.90;;
21418;SDS011;10870;51.384;10.316;2023-03-13T03:42:11;17.75;;;4.85;;
21418;SDS011;10870;51.384;10.316;2023-03-13T03:44:15;20.63;;;5.68;;
21418;SDS011;10870;51.384;10.316;2023-03-13T03:46:17;25.83;;;6.95;;
21418;SDS011;10870;51.384;10.316;2023-03-13T03:48:22;27.30;;;5.43;;
21418;SDS011;10870;51.384;10.316;2023-03-13T03:50:26;19.20;;;4.78;;
21418;SDS011;10870;51.384;10.316;2023-03-13T03:52:31;23.05;;;4.82;;
21418;SDS011;10870;51.384;10.316;2023-03-13T03:54:32;17.23;;;4.25;;
21418;SDS011;10870;51.384;10.316;2023-03-13T03:56:34;27.65;;;5.85;;
21418;SDS011;10870;51.384;10.316;2023-03-13T03:58:35;27.40;;;6.53;;
21418;SDS011;10870;51.384;10.316;2023-03-13T04:00:41;31.65;;;6.70;;
21418;SDS011;10870;51.384;10.316;2023-03-13T04:02:43;24.52;;;6.10;;
21418;SDS011;10870;51.384;10.316;2023-03-13T04:04:45;27.85;;;5.80;;
21418;SDS011;10870;51.384;10.316;2023-03-13T04:06:46;16.92;;;4.70;;
21418;SDS011;10870;51.384;10.316;2023-03-13T04:08:50;28.20;;;5.53;;
21418;SDS011;10870;51.384;10.316;2023-03-13T04:10:52;24.52;;;5.90;;
21418;SDS011;10870;51.384;10.316;2023-03-13T04:12:53;23.83;;;4.80;;
21418;SDS011;10870;51.384;10.316;2023-03-13T04:14:54;18.33;;;5.45;;
21418;SDS011;10870;51.384;10.316;2023-03-13T04:16:58;18.65;;;4.63;;
21418;SDS011;10870;51.384;10.316;2023-03-13T04:19:01;19.50;;;4.85;;
21418;SDS011;10870;51.384;10.316;2023-03-13T04:21:03;25.38;;;5.28;;
21418;SDS011;10870;51.384;10.316;2023-03-13T04:23:05;26.63;;;5.70;;
21418;SDS011;10870;51.384;10.316;2023-03-13T04:25:07;26.75;;;5.70;;
21418;SDS011;10870;51.384;10.316;2023-03-13T04:27:08;23.75;;;5.22;;
21418;SDS011;10870;51.384;10.316;2023-03-13T04:29:10;24.42;;;5.60;;
21418;SDS011;10870;51.384;10.316;2023-03-13T04:31:11;17.63;;;5.25;;
21418;SDS011;10870;51.384;10.316;2023-03-13T04:33:12;26.13;;;5.30;;
21418;SDS011;10870;51.384;10.316;2023-03-13T04:35:19;15.75;;;4.85;;
21418;SDS011;10870;51.384;10.316;2023-03-13T04:37:23;23.27;;;5.13;;
21418;SDS011;10870;51.384;10.316;2023-03-13T04:39:24;26.60;;;5.78;;
21418;SDS011;10870;51.384;10.316;2023-03-13T04:41:28;21.13;;;5.50;;
21418;SDS011;10870;51.384;10.316;2023-03-13T04:43:29;27.20;;;5.53;;
21418;SDS011;10870;51.384;10.316;2023-03-13T04:45:30;23.38;;;6.68;;
21418;SDS011;10870;51.384;10.316;2023-03-13T04:47:34;14.07;;;4.32;;
21418;SDS011;10870;51.384;10.316;2023-03-13T04:49:38;22.60;;;5.57;;
21418;SDS011;10870;51.384;10.316;2023-03-13T04:51:40;21.40;;;5.15;;
21418;SDS011;10870;51.384;10.316;2023-03-13T04:53:44;27.50;;;6.35;;
21418;SDS011;10870;51.384;10.316;2023-03-13T04:55:48;19.00;;;4.60;;
21418;SDS011;10870;51.384;10.316;2023-03-13T04:57:52;16.70;;;4.35;;
21418;SDS011;10870;51.384;10.316;2023-03-13T04:59:53;12.13;;;3.72;;
21418;SDS011;10870;51.384;10.316;2023-03-13T05:01:55;17.23;;;3.90;;
21418;SDS011;10870;51.384;10.316;2023-03-13T05:03:56;13.43;;;4.30;;
21418;SDS011;10870;51.384;10.316;2023-03-13T05:05:57;13.43;;;3.85;;
21418;SDS011;10870;51.384;10.316;2023-03-13T05:08:02;19.15;;;4.55;;
21418;SDS011;10870;51.384;10.316;2023-03-13T05:10:07;13.30;;;5.32;;
21418;SDS011;10870;51.384;10.316;2023-03-13T05:12:13;15.52;;;3.33;;
21418;SDS011;10870;51.384;10.316;2023-03-13T05:14:16;16.75;;;4.03;;
21418;SDS011;10870;51.384;10.316;2023-03-13T05:16:21;8.50;;;3.05;;
21418;SDS011;10870;51.384;10.316;2023-03-13T05:18:26;7.75;;;2.70;;
21418;SDS011;10870;51.384;10.316;2023-03-13T05:20:30;11.18;;;2.20;;
21418;SDS011;10870;51.384;10.316;2023-03-13T05:22:32;7.28;;;2.05;;
21418;SDS011;10870;51.384;10.316;2023-03-13T05:24:34;9.60;;;2.13;;
21418;SDS011;10870;51.384;10.316;2023-03-13T05:26:35;7.88;;;3.00;;
21418;SDS011;10870;51.384;10.316;2023-03-13T05:28:39;10.88;;;2.85;;
21418;SDS011;10870;51.384;10.316;2023-03-13T05:30:40;5.70;;;2.78;;
21418;SDS011;10870;51.384;10.316;2023-03-13T05:32:44;8.23;;;3.33;;
21418;SDS011;10870;51.384;10.316;2023-03-13T05:34:45;5.10;;;2.30;;
21418;SDS011;10870;51.384;10.316;2023-03-13T05:36:51;8.18;;;2.63;;
21418;SDS011;10870;51.384;10.316;2023-03-13T05:38:52;7.03;;;2.35;;
21418;SDS011;10870;51.384;10.316;2023-03-13T05:40:56;4.03;;;1.90;;
21418;SDS011;10870;51.384;10.316;2023-03-13T05:43:04;8.23;;;2.38;;
21418;SDS011;10870;51.384;10.316;2023-03-13T05:45:06;7.03;;;2.33;;
21418;SDS011;10870;51.384;10.316;2023-03-13T05:47:11;5.35;;;2.78;;
21418;SDS011;10870;51.384;10.316;2023-03-13T05:49:12;7.63;;;2.30;;
21418;SDS011;10870;51.384;10.316;2023-03-13T05:51:14;7.00;;;2.30;;
21418;SDS011;10870;51.384;10.316;2023-03-13T05:53:18;7.30;;;2.47;;
21418;SDS011;10870;51.384;10.316;2023-03-13T05:55:22;6.72;;;2.28;;
21418;SDS011;10870;51.384;10.316;2023-03-13T05:57:26;5.72;;;2.20;;
21418;SDS011;10870;51.384;10.316;2023-03-13T05:59:30;6.72;;;2.63;;
21418;SDS011;10870;51.384;10.316;2023-03-13T06:01:31;6.45;;;2.50;;
21418;SDS011;10870;51.384;10.316;2023-03-13T06:03:35;8.00;;;2.40;;
21418;SDS011;10870;51.384;10.316;2023-03-13T06:05:39;6.72;;;2.28;;
21418;SDS011;10870;51.384;10.316;2023-03-13T06:07:41;7.45;;;2.83;;
21418;SDS011;10870;51.384;10.316;2023-03-13T06:09:45;9.60;;;2.92;;
21418;SDS011;10870;51.384;10.316;2023-03-13T06:11:46;7.15;;;3.15;;
21418;SDS011;10870;51.384;10.316;2023-03-13T06:13:52;5.78;;;2.50;;
21418;SDS011;10870;51.384;10.316;2023-03-13T06:15:56;18.05;;;2.67;;
21418;SDS011;10870;51.384;10.316;2023-03-13T06:18:00;7.32;;;3.25;;
21418;SDS011;10870;51.384;10.316;2023-03-13T06:20:02;7.90;;;2.90;;
21418;SDS011;10870;51.384;10.316;2023-03-13T06:22:05;7.80;;;3.03;;
21418;SDS011;10870;51.384;10.316;2023-03-13T06:24:06;7.60;;;3.28;;
21418;SDS011;10870;51.384;10.316;2023-03-13T06:26:13;11.30;;;3.30;;
21418;SDS011;10870;51.384;10.316;2023-03-13T06:28:15;13.63;;;3.58;;
21418;SDS011;10870;51.384;10.316;2023-03-13T06:30:17;7.97;;;2.80;;
21418;SDS011;10870;51.384;10.316;2023-03-13T06:32:21;5.95;;;2.72;;
21418;SDS011;10870;51.384;10.316;2023-03-13T06:34:22;13.98;;;3.72;;
21418;SDS011;10870;51.384;10.316;2023-03-13T06:36:24;10.07;;;2.97;;
21418;SDS011;10870;51.384;10.316;2023-03-13T06:38:25;7.55;;;3.03;;
21418;SDS011;10870;51.384;10.316;2023-03-13T06:40:30;6.80;;;2.40;;
21418;SDS011;10870;51.384;10.316;2023-03-13T06:42:31;7.90;;;3.10;;
21418;SDS011;10870;51.384;10.316;2023-03-13T06:44:37;10.30;;;3.20;;
21418;SDS011;10870;51.384;10.316;2023-03-13T06:46:41;7.15;;;2.65;;
21418;SDS011;10870;51.384;10.316;2023-03-13T06:48:44;8.98;;;2.90;;
21418;SDS011;10870;51.384;10.316;2023-03-13T06:50:49;10.43;;;2.88;;
21418;SDS011;10870;51.384;10.316;2023-03-13T06:52:55;9.57;;;3.17;;
21418;SDS011;10870;51.384;10.316;2023-03-13T06:54:57;8.85;;;3.45;;
21418;SDS011;10870;51.384;10.316;2023-03-13T06:57:00;6.35;;;2.70;;
21418;SDS011;10870;51.384;10.316;2023-03-13T06:59:01;6.22;;;2.13;;
21418;SDS011;10870;51.384;10.316;2023-03-13T07:01:10;9.95;;;2.67;;
21418;SDS011;10870;51.384;10.316;2023-03-13T07:03:12;7.28;;;2.63;;
21418;SDS011;10870;51.384;10.316;2023-03-13T07:05:14;12.13;;;3.78;;
21418;SDS011;10870;51.384;10.316;2023-03-13T07:07:17;7.32;;;2.95;;
21418;SDS011;10870;51.384;10.316;2023-03-13T07:09:24;8.40;;;3.00;;
21418;SDS011;10870;51.384;10.316;2023-03-13T07:11:27;9.82;;;3.13;;
21418;SDS011;10870;51.384;10.316;2023-03-13T07:13:33;6.00;;;2.65;;
21418;SDS011;10870;51.384;10.316;2023-03-13T07:15:35;5.32;;;2.90;;
21418;SDS011;10870;51.384;10.316;2023-03-13T07:17:36;6.05;;;2.70;;
21418;SDS011;10870;51.384;10.316;2023-03-13T07:19:40;5.82;;;3.25;;
21418;SDS011;10870;51.384;10.316;2023-03-13T07:21:42;6.15;;;3.08;;
21418;SDS011;10870;51.384;10.316;2023-03-13T07:23:45;10.13;;;3.13;;
21418;SDS011;10870;51.384;10.316;2023-03-13T07:25:54;3.42;;;2.78;;
21418;SDS011;10870;51.384;10.316;2023-03-13T07:27:57;6.22;;;2.83;;
21418;SDS011;10870;51.384;10.316;2023-03-13T07:30:00;5.90;;;2.88;;
21418;SDS011;10870;51.384;10.316;2023-03-13T07:32:06;10.32;;;3.50;;
21418;SDS011;10870;51.384;10.316;2023-03-13T07:34:07;8.40;;;2.97;;
21418;SDS011;10870;51.384;10.316;2023-03-13T07:36:11;3.58;;;2.55;;
21418;SDS011;10870;51.384;10.316;2023-03-13T07:38:12;7.00;;;3.10;;
21418;SDS011;10870;51.384;10.316;2023-03-13T07:40:15;7.18;;;2.65;;
21418;SDS011;10870;51.384;10.316;2023-03-13T07:42:19;5.10;;;3.20;;
21418;SDS011;10870;51.384;10.316;2023-03-13T07:44:20;4.97;;;2.83;;
21418;SDS011;10870;51.384;10.316;2023-03-13T07:46:22;3.80;;;2.35;;
21418;SDS011;10870;51.384;10.316;2023-03-13T07:48:24;5.22;;;2.88;;
21418;SDS011;10870;51.384;10.316;2023-03-13T07:50:28;4.40;;;2.53;;
21418;SDS011;10870;51.384;10.316;2023-03-13T07:52:31;3.33;;;2.42;;
21418;SDS011;10870;51.384;10.316;2023-03-13T07:54:33;3.33;;;2.38;;
21418;SDS011;10870;51.384;10.316;2023-03-13T07:56:39;7.45;;;3.83;;
21418;SDS011;10870;51.384;10.316;2023-03-13T07:58:43;8.23;;;3.08;;
21418;SDS011;10870;51.384;10.316;2023-03-13T08:00:44;5.82;;;2.05;;
21418;SDS011;10870;51.384;10.316;2023-03-13T08:02:50;2.90;;;2.25;;
21418;SDS011;10870;51.384;10.316;2023-03-13T08:04:52;4.22;;;1.95;;
21418;SDS011;10870;51.384;10.316;2023-03-13T08:06:53;5.70;;;2.28;;
21418;SDS011;10870;51.384;10.316;2023-03-13T08:08:56;4.13;;;2.63;;
21418;SDS011;10870;51.384;10.316;2023-03-13T08:11:02;4.43;;;2.30;;
21418;SDS011;10870;51.384;10.316;2023-03-13T08:13:07;5.30;;;2.50;;
21418;SDS011;10870;51.384;10.316;2023-03-13T08:15:09;3.33;;;1.88;;
21418;SDS011;10870;51.384;10.316;2023-03-13T08:17:12;2.55;;;1.88;;
21418;SDS011;10870;51.384;10.316;2023-03-13T08:19:16;3.83;;;2.08;;
21418;SDS011;10870;51.384;10.316;2023-03-13T08:23:54;4.32;;;2.28;;
21418;SDS011;10870;51.384;10.316;2023-03-13T08:26:02;4.55;;;2.10;;
21418;SDS011;10870;51.384;10.316;2023-03-13T08:28:08;4.73;;;2.20;;
21418;SDS011;10870;51.384;10.316;2023-03-13T08:30:10;4.22;;;2.40;;
21418;SDS011;10870;51.384;10.316;2023-03-13T08:32:12;4.45;;;2.08;;
21418;SDS011;10870;51.384;10.316;2023-03-13T08:34:17;3.25;;;2.20;;
21418;SDS011;10870;51.384;10.316;2023-03-13T08:36:23;4.38;;;2.25;;
21418;SDS011;10870;51.384;10.316;2023-03-13T08:38:27;3.65;;;2.30;;
21418;SDS011;10870;51.384;10.316;2023-03-13T08:40:31;3.65;;;2.25;;
21418;SDS011;10870;51.384;10.316;2023-03-13T08:42:35;3.85;;;1.85;;
21418;SDS011;10870;51.384;10.316;2023-03-13T08:44:36;3.92;;;2.10;;
21418;SDS011;10870;51.384;10.316;2023-03-13T08:46:38;3.65;;;1.80;;
21418;SDS011;10870;51.384;10.316;2023-03-13T08:48:47;3.90;;;2.00;;
21418;SDS011;10870;51.384;10.316;2023-03-13T08:50:58;4.15;;;2.10;;
21418;SDS011;10870;51.384;10.316;2023-03-13T08:53:02;2.17;;;1.52;;
21418;SDS011;10870;51.384;10.316;2023-03-13T08:55:03;3.72;;;2.00;;
21418;SDS011;10870;51.384;10.316;2023-03-13T08:57:05;3.13;;;2.00;;
21418;SDS011;10870;51.384;10.316;2023-03-13T08:59:06;2.25;;;1.83;;
21418;SDS011;10870;51.384;10.316;2023-03-13T09:01:11;4.95;;;2.13;;
21418;SDS011;10870;51.384;10.316;2023-03-13T09:03:14;4.50;;;2.30;;
21418;SDS011;10870;51.384;10.316;2023-03-13T09:05:16;3.42;;;2.22;;
21418;SDS011;10870;51.384;10.316;2023-03-13T09:07:20;3.42;;;1.50;;
21418;SDS011;10870;51.384;10.316;2023-03-13T09:09:24;2.72;;;1.98;;
21418;SDS011;10870;51.384;10.316;2023-03-13T09:11:32;2.10;;;1.92;;
21418;SDS011;10870;51.384;10.316;2023-03-13T09:13:36;2.90;;;1.80;;
21418;SDS011;10870;51.384;10.316;2023-03-13T09:15:37;1.80;;;1.55;;
21418;SDS011;10870;51.384;10.316;2023-03-13T09:17:39;2.35;;;1.90;;
21418;SDS011;10870;51.384;10.316;2023-03-13T09:19:42;3.28;;;1.98;;
21418;SDS011;10870;51.384;10.316;2023-03-13T09:21:45;2.85;;;1.88;;
21418;SDS011;10870;51.384;10.316;2023-03-13T09:23:48;2.35;;;1.85;;
21418;SDS011;10870;51.384;10.316;2023-03-13T09:25:56;2.22;;;2.00;;
21418;SDS011;10870;51.384;10.316;2023-03-13T09:28:02;3.30;;;1.63;;
21418;SDS011;10870;51.384;10.316;2023-03-13T09:30:04;3.22;;;1.67;;
21418;SDS011;10870;51.384;10.316;2023-03-13T09:32:05;4.97;;;2.22;;
21418;SDS011;10870;51.384;10.316;2023-03-13T09:34:11;3.10;;;1.83;;
21418;SDS011;10870;51.384;10.316;2023-03-13T09:36:15;4.45;;;2.15;;
21418;SDS011;10870;51.384;10.316;2023-03-13T09:38:17;2.03;;;1.75;;
21418;SDS011;10870;51.384;10.316;2023-03-13T09:40:21;3.40;;;1.90;;
21418;SDS011;10870;51.384;10.316;2023-03-13T09:42:31;3.72;;;1.90;;
21418;SDS011;10870;51.384;10.316;2023-03-13T09:44:51;3.78;;;2.17;;
21418;SDS011;10870;51.384;10.316;2023-03-13T09:47:02;3.70;;;1.73;;
21418;SDS011;10870;51.384;10.316;2023-03-13T09:51:48;4.47;;;1.67;;
21418;SDS011;10870;51.384;10.316;2023-03-13T09:56:04;2.30;;;1.95;;
21418;SDS011;10870;51.384;10.316;2023-03-13T09:58:10;2.60;;;1.98;;
21418;SDS011;10870;51.384;10.316;2023-03-13T10:00:15;3.65;;;2.05;;
21418;SDS011;10870;51.384;10.316;2023-03-13T10:06:33;1.98;;;1.77;;
21418;SDS011;10870;51.384;10.316;2023-03-13T10:08:36;3.05;;;1.83;;
21418;SDS011;10870;51.384;10.316;2023-03-13T10:13:00;3.35;;;2.42;;
21418;SDS011;10870;51.384;10.316;2023-03-13T10:15:15;2.30;;;2.10;;
21418;SDS011;10870;51.384;10.316;2023-03-13T10:19:29;5.15;;;2.10;;
21418;SDS011;10870;51.384;10.316;2023-03-13T10:21:34;2.58;;;2.38;;
21418;SDS011;10870;51.384;10.316;2023-03-13T10:23:37;4.05;;;2.60;;
21418;SDS011;10870;51.384;10.316;2023-03-13T10:25:42;5.63;;;2.63;;
21418;SDS011;10870;51.384;10.316;2023-03-13T10:27:47;4.10;;;3.38;;
21418;SDS011;10870;51.384;10.316;2023-03-13T10:29:54;3.58;;;2.40;;
21418;SDS011;10870;51.384;10.316;2023-03-13T10:34:04;4.13;;;2.60;;
21418;SDS011;10870;51.384;10.316;2023-03-13T10:36:13;3.30;;;1.88;;
21418;SDS011;10870;51.384;10.316;2023-03-13T10:38:20;5.13;;;2.38;;
21418;SDS011;10870;51.384;10.316;2023-03-13T10:40:28;5.10;;;2.20;;
21418;SDS011;10870;51.384;10.316;2023-03-13T10:42:32;5.25;;;2.42;;
21418;SDS011;10870;51.384;10.316;2023-03-13T10:44:36;2.70;;;1.67;;
21418;SDS011;10870;51.384;10.316;2023-03-13T10:46:39;2.25;;;2.05;;
21418;SDS011;10870;51.384;10.316;2023-03-13T10:48:40;4.45;;;2.72;;
21418;SDS011;10870;51.384;10.316;2023-03-13T10:50:43;4.40;;;2.03;;
21418;SDS011;10870;51.384;10.316;2023-03-13T10:52:47;4.15;;;2.30;;
21418;SDS011;10870;51.384;10.316;2023-03-13T10:54:49;3.40;;;2.03;;
21418;SDS011;10870;51.384;10.316;2023-03-13T10:56:51;4.78;;;2.20;;
21418;SDS011;10870;51.384;10.316;2023-03-13T10:58:57;3.55;;;2.25;;
21418;SDS011;10870;51.384;10.316;2023-03-13T11:01:13;5.32;;;2.38;;
21418;SDS011;10870;51.384;10.316;2023-03-13T11:07:29;4.80;;;2.30;;
21418;SDS011;10870;51.384;10.316;2023-03-13T11:09:32;4.07;;;2.20;;
21418;SDS011;10870;51.384;10.316;2023-03-13T11:11:42;3.05;;;2.15;;
21418;SDS011;10870;51.384;10.316;2023-03-13T11:13:43;2.25;;;2.10;;
21418;SDS011;10870;51.384;10.316;2023-03-13T11:15:49;2.63;;;2.03;;
21418;SDS011;10870;51.384;10.316;2023-03-13T11:18:04;2.83;;;2.08;;
21418;SDS011;10870;51.384;10.316;2023-03-13T11:22:26;3.22;;;2.20;;
21418;SDS011;10870;51.384;10.316;2023-03-13T11:24:35;3.15;;;1.80;;
21418;SDS011;10870;51.384;10.316;2023-03-13T11:26:43;3.05;;;2.75;;
21418;SDS011;10870;51.384;10.316;2023-03-13T11:28:54;3.13;;;1.80;;
21418;SDS011;10870;51.384;10.316;2023-03-13T11:31:02;3.22;;;2.50;;
21418;SDS011;10870;51.384;10.316;2023-03-13T11:37:27;3.60;;;2.20;;
21418;SDS011;10870;51.384;10.316;2023-03-13T11:41:51;5.05;;;2.38;;
21418;SDS011;10870;51.384;10.316;2023-03-13T11:46:29;2.00;;;1.80;;
21418;SDS011;10870;51.384;10.316;2023-03-13T11:55:02;3.30;;;1.80;;
21418;SDS011;10870;51.384;10.316;2023-03-13T11:57:13;2.75;;;1.85;;
21418;SDS011;10870;51.384;10.316;2023-03-13T11:59:27;4.15;;;2.30;;
21418;SDS011;10870;51.384;10.316;2023-03-13T12:01:37;2.35;;;1.75;;
21418;SDS011;10870;51.384;10.316;2023-03-13T12:06:06;4.90;;;2.10;;
21418;SDS011;10870;51.384;10.316;2023-03-13T12:08:33;2.75;;;1.98;;
21418;SDS011;10870;51.384;10.316;2023-03-13T12:10:37;2.42;;;2.20;;
21418;SDS011;10870;51.384;10.316;2023-03-13T12:12:44;1.67;;;1.58;;
21418;SDS011;10870;51.384;10.316;2023-03-13T12:16:58;2.05;;;1.88;;
21418;SDS011;10870;51.384;10.316;2023-03-13T12:19:06;2.28;;;1.80;;
21418;SDS011;10870;51.384;10.316;2023-03-13T12:25:42;3.63;;;1.90;;
21418;SDS011;10870;51.384;10.316;2023-03-13T12:27:46;2.72;;;2.15;;
21418;SDS011;10870;51.384;10.316;2023-03-13T12:30:10;2.97;;;1.40;;
21418;SDS011;10870;51.384;10.316;2023-03-13T12:32:21;3.38;;;1.70;;
21418;SDS011;10870;51.384;10.316;2023-03-13T12:34:27;1.20;;;1.10;;
21418;SDS011;10870;51.384;10.316;2023-03-13T12:36:43;3.30;;;1.90;;
21418;SDS011;10870;51.384;10.316;2023-03-13T12:43:22;2.83;;;1.20;;
21418;SDS011;10870;51.384;10.316;2023-03-13T12:45:26;1.63;;;1.20;;
21418;SDS011;10870;51.384;10.316;2023-03-13T12:47:32;1.38;;;1.10;;
21418;SDS011;10870;51.384;10.316;2023-03-13T12:58:09;2.85;;;1.33;;
21418;SDS011;10870;51.384;10.316;2023-03-13T13:00:15;1.73;;;1.52;;
21418;SDS011;10870;51.384;10.316;2023-03-13T13:02:24;2.60;;;1.23;;
21418;SDS011;10870;51.384;10.316;2023-03-13T13:04:32;2.90;;;1.30;;
21418;SDS011;10870;51.384;10.316;2023-03-13T13:09:07;1.30;;;1.20;;
21418;SDS011;10870;51.384;10.316;2023-03-13T13:13:38;1.17;;;1.08;;
21418;SDS011;10870;51.384;10.316;2023-03-13T13:15:44;1.58;;;1.20;;
21418;SDS011;10870;51.384;10.316;2023-03-13T13:17:48;3.30;;;1.20;;
21418;SDS011;10870;51.384;10.316;2023-03-13T13:19:51;3.38;;;1.05;;
21418;SDS011;10870;51.384;10.316;2023-03-13T13:25:00;1.10;;;1.10;;
21418;SDS011;10870;51.384;10.316;2023-03-13T13:26:46;2.55;;;1.00;;